Time;durP1;ratioP1;P1;durP2;ratioP2;P2;SDS_P1;SDS_P2;PMS_P1;PMS_P2;Temp;Humidity;BMP_temperature;BMP_pressure;BME280_temperature;BME280_humidity;BME280_pressure;Samples;Min_cycle;Max_cycle;Signal;HPM_P1;HPM_P2
2021/04/09 00:01:58;;;;;;;7.90;3.42;;;;;;;-2.22;86.37;93984.53;5011046;28;20057;-89
2021/04/09 00:04:25;;;;;;;8.55;4.68;;;;;;;-2.11;85.68;94002.19;5011203;28;20050;-90
2021/04/09 00:06:52;;;;;;;11.73;4.47;;;;;;;-2.11;85.67;94007.22;5014655;28;20069;-89
2021/04/09 00:09:18;;;;;;;7.35;3.60;;;;;;;-2.11;86.20;93998.84;5015434;28;20072;-89
2021/04/09 00:11:45;;;;;;;17.48;3.45;;;;;;;-2.06;86.07;93999.31;5015118;28;20053;-90
2021/04/09 00:14:13;;;;;;;8.98;3.35;;;;;;;-1.99;85.36;94000.47;5015031;28;20049;-90
2021/04/09 00:16:41;;;;;;;7.68;4.15;;;;;;;-2.16;84.17;93996.69;5015369;28;20096;-89
2021/04/09 00:19:09;;;;;;;3.95;1.92;;;;;;;-2.31;84.33;94004.41;5015146;28;20061;-90
2021/04/09 00:21:36;;;;;;;7.70;3.75;;;;;;;-2.40;84.87;94011.84;5014869;28;20077;-91
2021/04/09 00:24:02;;;;;;;5.35;3.33;;;;;;;-2.64;87.40;94008.44;5015028;28;20042;-90
2021/04/09 00:26:29;;;;;;;11.40;5.32;;;;;;;-2.89;88.24;93967.44;5014781;28;20053;-89
2021/04/09 00:28:55;;;;;;;11.85;6.00;;;;;;;-2.59;89.57;94008.13;5015199;28;20058;-90
2021/04/09 00:31:22;;;;;;;8.30;4.35;;;;;;;-2.55;90.64;94006.97;5015089;28;20465;-89
2021/04/09 00:33:49;;;;;;;5.25;3.50;;;;;;;-2.58;90.17;94007.22;5015057;28;20050;-89
2021/04/09 00:36:17;;;;;;;7.75;3.33;;;;;;;-2.57;89.94;94007.13;5014785;28;20049;-89
2021/04/09 00:38:43;;;;;;;9.25;4.38;;;;;;;-2.55;90.32;94006.97;5014653;28;20100;-90
2021/04/09 00:41:09;;;;;;;6.43;4.95;;;;;;;-2.54;89.71;94001.06;5014141;28;20046;-89
2021/04/09 00:43:37;;;;;;;8.52;3.95;;;;;;;-2.53;88.91;94005.19;5014477;28;20493;-89
2021/04/09 00:46:03;;;;;;;6.10;3.08;;;;;;;-2.55;89.98;93999.44;5014200;28;20438;-91
2021/04/09 00:48:29;;;;;;;;;;;;;;;-2.54;89.11;93996.03;5014882;28;20050;-88
2021/04/09 00:50:56;;;;;;;4.78;2.83;;;;;;;-2.60;88.64;94001.50;5014440;28;19925;-88
2021/04/09 00:53:23;;;;;;;7.63;4.32;;;;;;;-2.60;88.41;93996.47;5014340;28;20104;-89
2021/04/09 00:55:49;;;;;;;7.55;4.07;;;;;;;-2.62;88.40;93994.06;5014056;28;20046;-88
2021/04/09 00:58:16;;;;;;;8.05;3.63;;;;;;;-2.63;89.14;93999.19;5014176;28;20100;-90
2021/04/09 01:00:42;;;;;;;4.72;2.50;;;;;;;-2.63;88.11;94000.00;5014226;28;20120;-89
2021/04/09 01:03:09;;;;;;;6.28;3.17;;;;;;;-2.61;88.10;94000.69;5014287;28;20484;-89
2021/04/09 01:05:35;;;;;;;7.75;2.58;;;;;;;-2.67;89.05;94001.13;5014192;28;20050;-89
2021/04/09 01:08:06;;;;;;;3.10;2.20;;;;;;;-2.66;89.23;94005.25;5014401;28;20057;-90
2021/04/09 01:10:32;;;;;;;2.80;2.10;;;;;;;-2.70;88.97;94002.16;5014094;28;20057;-90
2021/04/09 01:13:00;;;;;;;4.13;3.00;;;;;;;-2.66;88.53;94010.28;5014530;28;20049;-89
2021/04/09 01:15:26;;;;;;;5.10;2.75;;;;;;;-2.63;88.10;94020.13;5014336;28;20046;-90
2021/04/09 01:18:01;;;;;;;4.30;2.92;;;;;;;-2.65;88.81;94013.59;5013288;28;20099;-90
2021/04/09 01:20:50;;;;;;;3.70;2.50;;;;;;;-2.70;88.83;94014.72;5014466;28;20049;-88
2021/04/09 01:23:52;;;;;;;4.90;3.08;;;;;;;-2.74;88.75;93999.97;5014235;28;20057;-88
2021/04/09 01:27:06;;;;;;;3.55;2.75;;;;;;;-2.69;87.92;94007.97;5003070;28;20050;-88
2021/04/09 01:29:52;;;;;;;2.17;1.98;;;;;;;-2.75;88.24;94006.69;4915804;29;20113;-90
2021/04/09 01:32:20;;;;;;;3.13;2.50;;;;;;;-2.79;88.03;94000.28;4994650;28;20137;-88
2021/04/09 01:34:49;;;;;;;6.10;4.50;;;;;;;-2.80;88.37;93996.16;4994936;28;20073;-89
2021/04/09 01:37:18;;;;;;;3.22;1.95;;;;;;;-2.89;88.15;93990.06;4995108;28;20050;-90
2021/04/09 01:39:51;;;;;;;2.95;1.50;;;;;;;-2.88;87.95;94019.31;4995028;28;20050;-89
2021/04/09 01:42:20;;;;;;;3.47;1.58;;;;;;;-2.93;88.51;94016.34;4994885;28;20050;-89
2021/04/09 01:44:50;;;;;;;4.85;1.98;;;;;;;-3.15;88.86;93986.88;4994831;28;20391;-89
2021/04/09 01:47:17;;;;;;;3.15;1.73;;;;;;;-3.04;88.33;94014.56;4994895;28;20043;-89
2021/04/09 01:49:45;;;;;;;3.30;2.30;;;;;;;-3.10;88.60;94009.97;4995172;28;20051;-90
2021/04/09 01:52:12;;;;;;;2.22;1.48;;;;;;;-3.15;88.73;94010.28;4994965;28;20085;-91
2021/04/09 01:54:40;;;;;;;2.83;1.50;;;;;;;-3.14;88.68;94003.56;4994277;28;20145;-91
2021/04/09 01:57:09;;;;;;;3.30;2.00;;;;;;;-3.15;88.92;94014.53;4994436;28;20486;-89
2021/04/09 01:59:38;;;;;;;6.00;2.47;;;;;;;-3.23;88.93;94002.47;4994560;28;20046;-89
2021/04/09 02:02:06;;;;;;;3.40;2.22;;;;;;;-3.34;89.11;94010.72;4994009;28;20054;-90
2021/04/09 02:04:33;;;;;;;4.35;2.78;;;;;;;-3.47;88.93;94020.84;4993858;28;20403;-90
2021/04/09 02:07:02;;;;;;;7.45;2.72;;;;;;;-3.57;90.59;94028.16;4993889;28;20101;-90
2021/04/09 02:09:31;;;;;;;3.97;2.85;;;;;;;-3.71;91.87;94025.78;4993586;28;20046;-90
2021/04/09 02:11:59;;;;;;;5.07;2.75;;;;;;;-3.85;93.38;94025.00;4993381;28;20046;-90
2021/04/09 02:14:26;;;;;;;6.50;4.25;;;;;;;-3.86;94.90;94030.09;4993455;28;20058;-90
2021/04/09 02:16:55;;;;;;;6.80;4.55;;;;;;;-3.82;95.29;94026.50;4993201;28;20050;-91
2021/04/09 02:19:24;;;;;;;15.23;7.00;;;;;;;-3.71;95.73;94034.13;4993177;28;20050;-90
2021/04/09 02:21:51;;;;;;;18.55;8.40;;;;;;;-3.67;95.81;94029.69;4993171;28;20145;-90
2021/04/09 02:24:18;;;;;;;16.08;6.90;;;;;;;-3.60;95.80;94025.06;4993027;28;20419;-90
2021/04/09 02:26:45;;;;;;;31.90;7.55;;;;;;;-3.54;95.44;94025.47;4992974;28;20498;-91
2021/04/09 02:29:11;;;;;;;13.07;6.65;;;;;;;-3.66;95.00;94004.47;4992730;28;20058;-90
2021/04/09 02:31:39;;;;;;;15.20;7.45;;;;;;;-3.40;94.29;94039.59;5011237;28;20061;-91
2021/04/09 02:34:05;;;;;;;14.70;6.97;;;;;;;-3.33;94.13;94039.19;5012377;28;20046;-91
2021/04/09 02:36:32;;;;;;;11.75;5.95;;;;;;;-3.36;94.33;94040.19;5012580;28;20050;-90
2021/04/09 02:39:03;;;;;;;11.95;5.63;;;;;;;-3.32;94.12;94048.31;5012604;28;20493;-91
2021/04/09 02:41:36;;;;;;;13.75;5.60;;;;;;;-3.43;94.70;94047.34;5012157;28;20054;-91
2021/04/09 02:44:03;;;;;;;11.48;5.03;;;;;;;-3.50;94.42;94046.16;5012063;28;20049;-91
2021/04/09 02:46:37;;;;;;;9.80;6.32;;;;;;;-3.49;94.84;94051.06;5012033;28;20523;-92
2021/04/09 02:49:14;;;;;;;14.55;5.10;;;;;;;-3.52;95.46;94051.28;5012262;28;20045;-92
2021/04/09 02:51:42;;;;;;;6.95;3.97;;;;;;;-3.50;94.86;94043.63;5011953;28;20049;-92
2021/04/09 02:54:14;;;;;;;11.55;6.57;;;;;;;-3.46;94.91;94026.66;5012007;28;20399;-92
2021/04/09 02:56:41;;;;;;;15.55;4.90;;;;;;;-3.30;94.62;94044.81;5011820;28;20056;-93
2021/04/09 02:59:12;;;;;;;8.63;4.75;;;;;;;-3.21;94.71;94043.38;5012087;28;20092;-91
2021/04/09 03:01:40;;;;;;;8.30;4.43;;;;;;;-3.16;94.15;94041.34;5011725;28;20053;-92
2021/04/09 03:04:07;;;;;;;5.78;4.35;;;;;;;-3.16;93.99;94033.81;5011898;28;20054;-92
2021/04/09 03:06:36;;;;;;;7.43;4.53;;;;;;;-3.27;93.60;94016.97;5011716;28;20493;-92
2021/04/09 03:09:02;;;;;;;6.70;3.03;;;;;;;-3.09;93.14;94045.03;5011550;28;20077;-92
2021/04/09 03:11:28;;;;;;;8.55;4.57;;;;;;;-3.13;92.14;94041.16;5011607;28;20045;-93
2021/04/09 03:13:55;;;;;;;;;;;;;;;-3.12;91.37;94050.28;5012259;28;20045;-92
2021/04/09 03:16:25;;;;;;;6.75;3.50;;;;;;;-3.21;91.00;94045.88;5011709;28;19921;-91
2021/04/09 03:18:52;;;;;;;7.13;3.85;;;;;;;-3.25;91.16;94045.28;5011668;28;20042;-93
2021/04/09 03:21:18;;;;;;;5.60;2.85;;;;;;;-3.22;91.29;94054.34;5011519;28;20060;-92
2021/04/09 03:23:44;;;;;;;;;;;;;;;-3.26;91.47;94060.47;5011834;28;20053;-92
2021/04/09 03:26:11;;;;;;;5.45;4.00;;;;;;;-3.38;91.32;94060.38;5011332;28;19921;-93
2021/04/09 03:28:37;;;;;;;2.85;2.38;;;;;;;-3.45;92.40;94054.19;5011535;28;20050;-92
2021/04/09 03:31:04;;;;;;;;;;;;;;;-3.43;93.06;94054.88;5011820;28;20058;-93
2021/04/09 03:33:31;;;;;;;4.32;2.05;;;;;;;-3.48;93.41;94051.88;5011309;28;20293;-91
2021/04/09 03:35:57;;;;;;;5.05;3.17;;;;;;;-3.49;93.92;94047.75;5011359;28;20050;-93
2021/04/09 03:38:23;;;;;;;8.27;2.70;;;;;;;-3.44;93.85;94055.78;5011316;28;20049;-93
2021/04/09 03:40:50;;;;;;;3.72;2.97;;;;;;;-3.46;93.31;94056.78;5010724;28;20052;-93
2021/04/09 03:43:16;;;;;;;;;;;;;;;-3.42;92.81;94066.53;5011863;28;20050;-93
2021/04/09 03:45:43;;;;;;;6.68;2.80;;;;;;;-3.70;94.10;94072.59;5011230;28;19995;-92
2021/04/09 03:48:10;;;;;;;13.77;6.15;;;;;;;-3.67;95.26;94073.19;5011187;28;20066;-94
2021/04/09 03:50:37;;;;;;;6.75;4.82;;;;;;;-3.73;96.10;94075.28;5011221;28;20050;-93
2021/04/09 03:53:04;;;;;;;9.27;5.15;;;;;;;-3.73;96.16;94076.09;5011017;28;20050;-93
2021/04/09 03:55:30;;;;;;;15.40;6.78;;;;;;;-3.63;97.16;94079.63;5011269;28;20049;-95
2021/04/09 03:57:57;;;;;;;11.38;7.07;;;;;;;-3.60;96.63;94083.63;5011308;28;20142;-92
2021/04/09 04:00:23;;;;;;;9.15;6.43;;;;;;;-3.60;95.91;94072.78;5011198;28;20061;-93
2021/04/09 04:02:50;;;;;;;8.63;5.05;;;;;;;-3.62;95.77;94067.84;5010943;28;20490;-93
2021/04/09 04:05:18;;;;;;;16.15;7.53;;;;;;;-3.52;95.51;94083.91;5011518;28;20057;-93
2021/04/09 04:07:45;;;;;;;11.95;6.10;;;;;;;-3.50;94.88;94087.16;5011130;28;20064;-93
2021/04/09 04:10:12;;;;;;;15.35;7.72;;;;;;;-3.68;93.79;94074.09;5011093;28;20046;-94
2021/04/09 04:12:39;;;;;;;11.98;6.53;;;;;;;-3.63;94.58;94088.84;5011094;28;20052;-93
2021/04/09 04:15:07;;;;;;;9.18;6.05;;;;;;;-3.61;95.44;94092.09;5010979;28;20096;-94
2021/04/09 04:17:33;;;;;;;9.57;4.75;;;;;;;-3.59;95.47;94102.00;5011212;28;20059;-94
2021/04/09 04:20:00;;;;;;;10.65;5.47;;;;;;;-3.77;95.65;94067.97;5010941;28;20445;-93
2021/04/09 04:22:27;;;;;;;10.38;4.82;;;;;;;-3.52;94.90;94099.00;5010882;28;20065;-93
2021/04/09 04:24:54;;;;;;;11.80;5.07;;;;;;;-3.49;95.10;94103.00;5010882;28;20086;-92
2021/04/09 04:27:20;;;;;;;12.77;4.85;;;;;;;-3.57;93.66;94087.66;5010872;28;20074;-94
2021/04/09 04:29:47;;;;;;;12.82;4.40;;;;;;;-3.43;93.41;94111.88;5010841;28;20054;-94
2021/04/09 04:32:13;;;;;;;6.72;3.00;;;;;;;-3.51;92.70;94114.88;5010773;28;20087;-94
2021/04/09 04:34:39;;;;;;;;;;;;;;;-3.62;92.59;94123.09;5011113;28;20076;-94
2021/04/09 04:37:05;;;;;;;6.88;2.95;;;;;;;-3.65;92.98;94120.81;5010958;28;19921;-92
2021/04/09 04:39:33;;;;;;;4.53;2.85;;;;;;;-3.66;94.21;94114.97;5011157;28;20042;-94
2021/04/09 04:41:59;;;;;;;11.60;5.28;;;;;;;-3.74;95.61;94098.78;5011220;28;20104;-95
2021/04/09 04:44:25;;;;;;;7.78;5.00;;;;;;;-3.63;95.21;94099.72;5010785;28;20057;-95
2021/04/09 04:46:52;;;;;;;10.40;6.75;;;;;;;-3.65;94.78;94091.47;5010660;28;20490;-96
2021/04/09 04:49:18;;;;;;;10.90;5.13;;;;;;;-3.56;94.32;94099.31;5011201;28;20054;-95
2021/04/09 04:51:44;;;;;;;;;;;;;;;-3.34;93.89;94128.03;5012584;28;20050;-95
2021/04/09 04:54:10;;;;;;;3.97;2.53;;;;;;;-3.43;94.19;94117.66;5014351;28;19922;-94
2021/04/09 04:56:37;;;;;;;;;;;;;;;-3.32;93.50;94121.19;5014856;28;20041;-93
2021/04/09 04:59:04;;;;;;;10.05;4.15;;;;;;;-3.45;93.72;94113.66;5014339;28;19922;-95
2021/04/09 05:01:30;;;;;;;;;;;;;;;-3.34;93.94;94133.06;5014396;28;20123;-95
2021/04/09 05:03:56;;;;;;;9.65;4.45;;;;;;;-3.49;94.15;94115.56;5014173;28;19925;-95
2021/04/09 05:06:23;;;;;;;;;;;;;;;-3.33;93.57;94132.97;5014641;28;20061;-95
2021/04/09 05:08:49;;;;;;;5.90;3.30;;;;;;;-3.37;94.10;94124.00;5014592;28;19925;-95
2021/04/09 05:11:15;;;;;;;;;;;;;;;-3.17;94.51;94141.97;5015061;28;20060;-96
2021/04/09 05:13:43;;;;;;;9.43;3.70;;;;;;;-2.96;94.54;94137.22;5015178;28;19921;-95
2021/04/09 05:16:09;;;;;;;6.03;2.97;;;;;;;-2.61;93.04;94136.53;5014775;28;20104;-94
2021/04/09 05:18:35;;;;;;;;;;;;;;;-2.33;91.16;94144.66;5014618;28;20502;-95
2021/04/09 05:21:01;;;;;;;6.10;4.20;;;;;;;-2.20;90.54;94132.03;5013787;28;19933;-93
2021/04/09 05:23:27;;;;;;;;;;;;;;;-1.92;88.10;94142.66;5014094;28;20505;-92
2021/04/09 05:25:54;;;;;;;7.30;2.97;;;;;;;-1.88;86.13;94140.72;5013584;28;19922;-93
2021/04/09 05:28:20;;;;;;;13.52;6.53;;;;;;;-1.92;87.61;94155.25;5013706;28;20054;-91
2021/04/09 05:30:47;;;;;;;;;;;;;;;-1.72;88.36;94149.69;5013901;28;20104;-93
2021/04/09 05:33:14;;;;;;;12.52;6.03;;;;;;;-1.40;87.34;94149.03;5013618;28;20436;-92
2021/04/09 05:35:40;;;;;;;13.25;5.93;;;;;;;-1.01;85.71;94147.00;5013432;28;20049;-93
2021/04/09 05:38:07;;;;;;;9.70;5.43;;;;;;;-0.74;83.83;94155.91;5013510;28;20068;-92
2021/04/09 05:40:33;;;;;;;8.10;5.20;;;;;;;-0.60;82.86;94159.91;5013388;28;20053;-93
2021/04/09 05:43:02;;;;;;;9.40;5.20;;;;;;;-0.45;80.82;94167.22;5013260;28;20386;-92
2021/04/09 05:45:28;;;;;;;16.67;6.78;;;;;;;-0.54;79.86;94156.13;5013109;28;20077;-91
2021/04/09 05:48:01;;;;;;;27.30;9.13;;;;;;;-0.43;81.09;94163.66;5013165;28;20057;-92
2021/04/09 05:50:27;;;;;;;13.82;7.70;;;;;;;-0.05;79.89;94175.97;5013228;28;20052;-90
2021/04/09 05:52:53;;;;;;;;;;;;;;;0.05;77.61;94178.56;5013710;28;20046;-89
2021/04/09 05:55:20;;;;;;;16.27;7.03;;;;;;;0.23;77.34;94182.16;5013040;28;19922;-89
2021/04/09 05:57:46;;;;;;;14.82;7.50;;;;;;;0.58;76.13;94184.50;5012837;28;20046;-89
2021/04/09 06:00:13;;;;;;;;;;;;;;;0.61;74.06;94191.84;5013419;28;20505;-88
2021/04/09 06:02:39;;;;;;;14.52;6.55;;;;;;;0.70;75.32;94193.66;5012544;28;20348;-90
2021/04/09 06:05:09;;;;;;;15.38;6.70;;;;;;;1.04;75.04;94192.59;5012521;28;20490;-90
2021/04/09 06:07:35;;;;;;;11.60;5.90;;;;;;;1.52;74.50;94190.38;5012758;28;20046;-90
2021/04/09 06:10:01;;;;;;;;;;;;;;;1.95;72.38;94191.75;5013223;28;20054;-90
2021/04/09 06:12:27;;;;;;;6.82;3.53;;;;;;;2.30;70.99;94188.88;5012614;28;19922;-91
2021/04/09 06:14:54;;;;;;;7.15;4.43;;;;;;;2.65;69.54;94187.47;5013022;28;20054;-90
2021/04/09 06:17:20;;;;;;;;;;;;;;;3.00;68.23;94180.19;5013166;28;20061;-90
2021/04/09 06:19:47;;;;;;;8.10;4.28;;;;;;;3.33;66.22;94180.56;5012977;28;20262;-90
2021/04/09 06:22:14;;;;;;;14.10;5.38;;;;;;;3.64;62.80;94175.22;5012385;28;20053;-90
2021/04/09 06:24:41;;;;;;;9.90;3.88;;;;;;;3.93;64.15;94173.44;5012423;28;20058;-89
2021/04/09 06:27:08;;;;;;;15.95;6.03;;;;;;;4.11;60.90;94174.25;5012284;28;20494;-90
2021/04/09 06:29:34;;;;;;;10.95;6.20;;;;;;;4.34;60.88;94178.06;5012176;28;20494;-91
2021/04/09 06:32:00;;;;;;;;;;;;;;;4.54;59.17;94179.50;5012801;28;20053;-90
2021/04/09 06:34:27;;;;;;;8.55;4.68;;;;;;;4.66;57.64;94182.63;5012330;28;19922;-90
2021/04/09 06:36:53;;;;;;;;;;;;;;;4.82;58.85;94181.91;5012762;28;20056;-89
2021/04/09 06:39:20;;;;;;;9.23;4.20;;;;;;;4.98;56.04;94185.50;5009361;28;19929;-90
2021/04/09 06:41:46;;;;;;;7.05;3.60;;;;;;;4.82;55.43;94184.47;5011930;28;20061;-91
2021/04/09 06:44:12;;;;;;;;;;;;;;;4.52;57.88;94183.94;5012331;28;20057;-90
2021/04/09 06:46:40;;;;;;;8.57;2.30;;;;;;;4.87;56.02;94193.41;5012190;28;19922;-89
2021/04/09 06:49:07;;;;;;;5.60;3.00;;;;;;;4.92;52.90;94193.75;5012367;28;20069;-89
2021/04/09 06:51:33;;;;;;;;;;;;;;;4.97;53.53;94189.00;5012646;28;20046;-89
2021/04/09 06:54:02;;;;;;;4.32;2.33;;;;;;;4.97;54.88;94183.91;5011975;28;19952;-88
2021/04/09 06:56:30;;;;;;;7.70;2.65;;;;;;;5.10;54.06;94198.78;5011902;28;20395;-88
2021/04/09 06:58:57;;;;;;;4.82;2.20;;;;;;;4.44;54.55;94191.50;5012129;28;20057;-89
2021/04/09 07:01:24;;;;;;;8.07;3.45;;;;;;;4.36;55.74;94194.00;5011995;28;20116;-88
2021/04/09 07:03:53;;;;;;;5.38;2.45;;;;;;;4.47;54.39;94195.50;5012048;28;20137;-89
2021/04/09 07:06:20;;;;;;;25.98;9.10;;;;;;;4.65;54.31;94190.41;5011869;28;20042;-88
2021/04/09 07:08:46;;;;;;;4.13;3.15;;;;;;;5.07;57.61;94194.00;5011659;28;20119;-87
2021/04/09 07:11:12;;;;;;;;;;;;;;;4.90;54.68;94198.19;5011955;28;20461;-88
2021/04/09 07:13:49;;;;;;;5.38;1.50;;;;;;;4.89;53.15;94187.22;5011819;28;19921;-90
2021/04/09 07:16:16;;;;;;;3.17;1.73;;;;;;;5.18;52.09;94193.72;5010820;28;20065;-87
2021/04/09 07:18:50;;;;;;;6.18;2.80;;;;;;;5.43;51.29;94185.41;5011664;28;20077;-88
2021/04/09 07:21:24;;;;;;;10.80;2.30;;;;;;;5.19;53.53;94195.31;5011309;28;20050;-88
2021/04/09 07:23:51;;;;;;;2.65;1.52;;;;;;;5.01;53.86;94195.41;5011597;28;20401;-88
2021/04/09 07:26:39;;;;;;;1.75;1.42;;;;;;;4.19;56.02;94196.41;5011611;28;20057;-91
2021/04/09 07:29:06;;;;;;;5.72;2.30;;;;;;;3.89;57.87;94200.88;5011328;28;20050;-90
2021/04/09 07:31:33;;;;;;;2.70;1.63;;;;;;;3.85;57.44;94199.59;5011502;28;20065;-88
2021/04/09 07:34:00;;;;;;;4.03;1.75;;;;;;;3.53;58.00;94193.19;5011278;28;20077;-88
2021/04/09 07:36:26;;;;;;;2.58;1.38;;;;;;;3.39;58.46;94197.00;5011474;28;20053;-87
2021/04/09 07:38:52;;;;;;;;;;;;;;;3.86;59.78;94196.91;5011617;28;20042;-86
2021/04/09 07:41:19;;;;;;;1.58;1.13;;;;;;;4.13;55.49;94187.59;5010718;28;19925;-87
2021/04/09 07:43:45;;;;;;;1.80;1.20;;;;;;;4.41;56.25;94181.63;5011243;28;20050;-86
2021/04/09 07:46:21;;;;;;;2.95;1.67;;;;;;;4.63;53.73;94182.91;5011024;28;20046;-85
2021/04/09 07:48:49;;;;;;;2.25;1.17;;;;;;;4.82;52.56;94193.84;5011054;28;20427;-89
2021/04/09 07:51:20;;;;;;;3.80;1.90;;;;;;;4.52;54.26;94193.31;5011072;28;20050;-88
2021/04/09 07:53:47;;;;;;;2.40;1.83;;;;;;;4.24;51.55;94194.22;5011237;28;20050;-88
2021/04/09 07:56:15;;;;;;;4.22;2.00;;;;;;;4.11;52.33;94196.31;5011094;28;20081;-88
2021/04/09 07:58:43;;;;;;;4.00;2.33;;;;;;;4.19;54.62;94193.84;5010855;28;20128;-88
2021/04/09 08:01:21;;;;;;;3.97;2.33;;;;;;;4.58;51.29;94190.19;5011055;28;20433;-88
2021/04/09 08:03:48;;;;;;;1.67;1.00;;;;;;;5.05;53.41;94193.34;5011168;28;20046;-88
2021/04/09 08:06:17;;;;;;;2.42;1.40;;;;;;;5.41;49.22;94194.97;5011092;28;20053;-87
2021/04/09 08:08:57;;;;;;;5.18;2.40;;;;;;;5.23;48.11;94193.28;5011117;28;20065;-88
2021/04/09 08:11:27;;;;;;;2.60;1.33;;;;;;;5.13;47.96;94190.06;5011259;28;20050;-87
2021/04/09 08:13:58;;;;;;;1.90;1.30;;;;;;;5.39;48.46;94194.31;5010882;28;20046;-88
2021/04/09 08:16:34;;;;;;;1.10;0.50;;;;;;;5.38;44.34;94193.53;5010792;28;20073;-89
2021/04/09 08:19:02;;;;;;;2.78;1.08;;;;;;;5.47;45.11;94197.69;5011065;28;20469;-86
2021/04/09 08:21:29;;;;;;;0.80;0.40;;;;;;;5.32;41.51;94201.78;5010940;28;20422;-88
2021/04/09 08:23:56;;;;;;;1.77;0.75;;;;;;;5.44;40.83;94200.53;5011549;28;20053;-88
2021/04/09 08:26:24;;;;;;;2.42;1.20;;;;;;;5.73;42.95;94191.72;5011638;28;20498;-90
2021/04/09 08:28:52;;;;;;;1.83;0.82;;;;;;;5.73;41.29;94203.66;5014642;28;20057;-88
2021/04/09 08:31:18;;;;;;;4.13;1.15;;;;;;;5.98;41.74;94206.28;5015469;28;20148;-88
2021/04/09 08:33:47;;;;;;;1.55;0.90;;;;;;;5.77;39.17;94196.50;5014633;28;20054;-89
2021/04/09 08:36:13;;;;;;;6.50;2.78;;;;;;;5.91;39.43;94193.34;5014430;28;20053;-87
2021/04/09 08:38:40;;;;;;;3.30;1.13;;;;;;;6.24;40.94;94178.13;5014518;28;20050;-87
2021/04/09 08:41:07;;;;;;;2.03;1.13;;;;;;;7.03;43.22;94194.66;5014245;28;20509;-88
2021/04/09 08:43:33;;;;;;;1.65;0.80;;;;;;;7.33;39.24;94192.34;5014408;28;20057;-88
2021/04/09 08:46:01;;;;;;;0.82;0.40;;;;;;;6.74;36.98;94190.88;5014383;28;20049;-88
2021/04/09 08:48:28;;;;;;;2.33;1.10;;;;;;;6.53;39.29;94193.94;5014226;28;20049;-87
2021/04/09 08:50:55;;;;;;;1.20;0.73;;;;;;;5.58;39.05;94200.91;5014256;28;20421;-88
2021/04/09 08:53:26;;;;;;;1.30;0.70;;;;;;;5.16;37.71;94203.28;5011540;28;21169;-87
2021/04/09 08:55:52;;;;;;;1.70;0.70;;;;;;;5.26;42.21;94208.25;5014156;28;20054;-88
2021/04/09 08:58:20;;;;;;;1.45;0.70;;;;;;;5.08;38.35;94209.13;5014339;28;20049;-87
2021/04/09 09:00:47;;;;;;;1.27;0.90;;;;;;;5.31;37.70;94207.78;5014110;28;20615;-88
2021/04/09 09:03:32;;;;;;;1.48;0.90;;;;;;;5.85;41.04;94204.19;5013640;28;20050;-87
2021/04/09 09:06:00;;;;;;;2.25;1.40;;;;;;;6.43;42.01;94196.63;5014204;28;20153;-87
2021/04/09 09:09:01;;;;;;;0.70;0.50;;;;;;;6.41;35.75;94199.38;5014050;28;20054;-87
2021/04/09 09:11:50;;;;;;;2.40;1.10;;;;;;;7.02;37.86;94192.28;4994594;28;20073;-86
2021/04/09 09:14:43;;;;;;;19.00;7.03;;;;;;;6.97;33.26;94179.19;4994447;28;20078;-90
2021/04/09 09:17:35;;;;;;;1.15;0.65;;;;;;;6.49;33.48;94193.44;4994231;28;20556;-90
2021/04/09 09:20:12;;;;;;;10.30;3.72;;;;;;;6.33;34.58;94194.25;4994075;28;20553;-87
2021/04/09 09:22:50;;;;;;;1.77;0.95;;;;;;;6.70;32.86;94187.06;4994002;28;20061;-88
2021/04/09 09:25:31;;;;;;;0.80;0.40;;;;;;;6.17;33.45;94192.47;4994199;28;20056;-88
2021/04/09 09:27:57;;;;;;;0.43;0.32;;;;;;;6.59;34.05;94180.53;4994063;28;20129;-88
2021/04/09 09:30:32;;;;;;;5.57;1.80;;;;;;;6.05;34.52;94176.66;4993891;28;20059;-90
2021/04/09 09:33:27;;;;;;;1.02;0.77;;;;;;;6.10;34.08;94188.94;4993997;28;20133;-88
2021/04/09 09:35:56;;;;;;;2.08;1.13;;;;;;;6.38;34.07;94192.00;4994245;28;20054;-89
2021/04/09 09:38:51;;;;;;;3.00;0.77;;;;;;;6.73;36.41;94191.84;4992940;28;20050;-86
2021/04/09 09:41:40;;;;;;;1.10;0.70;;;;;;;7.57;36.68;94177.91;5012890;28;20072;-87
2021/04/09 09:44:27;;;;;;;4.82;2.47;;;;;;;8.36;33.01;94172.78;5013312;28;20521;-88
2021/04/09 09:46:55;;;;;;;10.45;3.20;;;;;;;7.96;32.45;94175.47;5013190;28;20052;-92
2021/04/09 09:49:23;;;;;;;1.98;0.80;;;;;;;5.89;32.64;94108.56;5013326;28;20053;-88
2021/04/09 09:51:50;;;;;;;7.63;2.58;;;;;;;6.70;34.14;94161.53;5013335;28;20100;-87
2021/04/09 09:54:21;;;;;;;6.82;2.17;;;;;;;7.08;34.21;94172.00;5013314;28;21408;-86
2021/04/09 09:56:48;;;;;;;6.25;2.03;;;;;;;7.30;32.66;94169.69;5013129;28;20054;-88
2021/04/09 09:59:16;;;;;;;;;;;;;;;7.91;34.51;94172.63;5013018;28;20053;-87
2021/04/09 10:01:48;;;;;;;3.17;2.13;;;;;;;8.79;35.02;94162.03;5012036;28;20361;-86
2021/04/09 10:04:15;;;;;;;2.60;1.42;;;;;;;9.61;35.74;94162.13;5012615;28;20047;-86
2021/04/09 10:06:45;;;;;;;2.67;1.33;;;;;;;10.24;33.81;94155.69;5012175;28;20046;-87
2021/04/09 10:09:12;;;;;;;3.45;1.33;;;;;;;10.40;34.59;94126.38;5012288;28;20041;-91
2021/04/09 10:11:45;;;;;;;2.30;0.90;;;;;;;9.46;33.01;94147.59;5009063;28;20493;-87
2021/04/09 10:14:11;;;;;;;1.77;0.80;;;;;;;9.25;32.40;94153.41;5011497;28;20184;-89
2021/04/09 10:16:37;;;;;;;;;;;;;;;8.19;32.35;94154.22;5012643;28;20042;-88
2021/04/09 10:19:07;;;;;;;2.15;1.25;;;;;;;8.12;33.93;94152.34;5012490;28;20393;-87
2021/04/09 10:21:35;;;;;;;1.75;0.95;;;;;;;8.26;34.84;94148.22;5011947;28;20045;-88
2021/04/09 10:24:06;;;;;;;3.90;1.20;;;;;;;8.55;35.43;94144.19;5011947;28;20050;-88
2021/04/09 10:26:33;;;;;;;1.30;0.60;;;;;;;8.40;31.29;94140.75;5011750;28;20048;-88
2021/04/09 10:29:00;;;;;;;1.63;0.88;;;;;;;8.64;32.63;94131.28;5012059;28;20064;-88
2021/04/09 10:31:26;;;;;;;3.28;1.05;;;;;;;9.17;33.47;94141.47;5012022;28;20495;-87
2021/04/09 10:33:54;;;;;;;3.17;0.60;;;;;;;8.74;28.38;94139.53;5011728;28;20034;-88
2021/04/09 10:36:22;;;;;;;3.00;0.93;;;;;;;8.53;29.28;94129.97;5011694;28;20061;-89
2021/04/09 10:38:50;;;;;;;0.70;0.35;;;;;;;8.86;32.49;94131.41;5011730;28;20042;-87
2021/04/09 10:41:29;;;;;;;1.95;0.57;;;;;;;8.71;27.48;94131.41;5010712;28;20057;-88
2021/04/09 10:43:57;;;;;;;1.20;0.68;;;;;;;7.96;29.41;94137.88;4992756;28;20054;-88
2021/04/09 10:46:26;;;;;;;4.03;1.10;;;;;;;7.64;30.08;94141.44;4992474;28;20050;-87
2021/04/09 10:48:58;;;;;;;2.33;1.20;;;;;;;8.10;29.70;94130.44;4996187;28;20038;-88
2021/04/09 10:51:28;;;;;;;2.83;1.33;;;;;;;8.80;32.89;94130.34;5009219;28;20494;-90
2021/04/09 10:53:55;;;;;;;1.23;0.60;;;;;;;9.44;31.95;94131.56;5004431;28;20050;-86
2021/04/09 10:56:21;;;;;;;2.13;0.55;;;;;;;9.84;29.22;94125.28;5016660;28;20399;-88
2021/04/09 10:58:48;;;;;;;1.42;0.70;;;;;;;10.05;28.21;94098.84;5009406;28;20399;-86
2021/04/09 11:01:15;;;;;;;1.08;0.50;;;;;;;10.63;27.79;94108.19;5008846;28;20046;-91
2021/04/09 11:03:43;;;;;;;1.80;0.77;;;;;;;10.83;27.30;94110.09;5005540;28;20066;-89
2021/04/09 11:06:11;;;;;;;1.42;0.77;;;;;;;11.26;29.68;94106.56;5002500;28;20277;-90
2021/04/09 11:08:40;;;;;;;4.38;1.40;;;;;;;11.25;29.84;94107.53;5021212;28;20054;-86
2021/04/09 11:11:09;;;;;;;3.42;1.98;;;;;;;11.35;30.22;94105.41;5026937;28;20435;-86
2021/04/09 11:13:37;;;;;;;2.78;1.23;;;;;;;11.76;30.78;94103.75;5015932;28;20413;-90
2021/04/09 11:16:05;;;;;;;4.20;0.90;;;;;;;11.85;27.19;94099.22;5006923;28;20375;-88
2021/04/09 11:18:53;;;;;;;1.73;0.98;;;;;;;9.82;29.07;94104.94;5008558;28;20053;-94
2021/04/09 11:21:46;;;;;;;1.00;0.60;;;;;;;9.32;29.44;94107.34;5009275;28;20086;-92
2021/04/09 11:24:13;;;;;;;0.90;0.47;;;;;;;9.02;29.18;94112.53;5005454;28;20045;-91
2021/04/09 11:26:39;;;;;;;2.25;1.08;;;;;;;8.78;30.49;94112.59;4994484;28;20104;-88
2021/04/09 11:29:05;;;;;;;;;;;;;;;9.06;31.60;94111.97;4998507;28;20053;-89
2021/04/09 11:31:32;;;;;;;2.00;0.65;;;;;;;9.28;30.13;94098.44;5003004;28;19922;-91
2021/04/09 11:34:05;;;;;;;0.90;0.60;;;;;;;9.71;30.78;94103.66;4997690;28;20046;-86
2021/04/09 11:36:42;;;;;;;5.97;2.35;;;;;;;9.69;27.99;94104.81;5007787;28;20050;-87
2021/04/09 11:39:11;;;;;;;1.95;0.80;;;;;;;9.41;29.19;94097.78;5010466;28;20046;-87
2021/04/09 11:41:39;;;;;;;1.90;0.90;;;;;;;9.79;33.13;94097.59;5010074;28;20061;-86
2021/04/09 11:44:25;;;;;;;2.72;1.10;;;;;;;10.50;29.52;94088.34;5010492;28;20671;-87
2021/04/09 11:46:51;;;;;;;;;;;;;;;10.76;25.71;94096.41;5018186;28;20128;-87
2021/04/09 11:49:29;;;;;;;1.45;0.82;;;;;;;10.48;27.21;94079.25;5014341;28;19929;-87
2021/04/09 11:51:59;;;;;;;1.63;0.80;;;;;;;10.93;29.74;94084.84;5009363;28;20053;-86